createdAt,value
2022-08-17T06:13:58.002Z,1003.95
2022-08-17T06:23:57.912Z,1003.91
2022-08-17T06:33:58.161Z,1003.92
2022-08-17T06:43:58.138Z,1003.96
2022-08-17T06:53:58.045Z,1003.93
2022-08-17T07:03:58.215Z,1003.89
2022-08-17T07:13:58.241Z,1003.86
2022-08-17T07:23:58.118Z,1003.97
2022-08-17T07:33:58.174Z,1003.98
2022-08-17T07:43:58.113Z,1003.96
2022-08-17T07:54:13.094Z,1004.00
2022-08-17T08:03:58.203Z,1004.07
2022-08-17T08:13:58.130Z,1004.03
2022-08-17T08:23:58.200Z,1004.16
2022-08-17T08:33:58.164Z,1004.04
2022-08-17T08:43:58.217Z,1004.05
2022-08-17T08:53:58.246Z,1004.07
2022-08-17T09:04:17.021Z,1004.10
2022-08-17T09:13:58.256Z,1004.11
2022-08-17T09:23:58.197Z,1004.14
2022-08-17T09:33:58.178Z,1004.16
2022-08-17T09:43:58.326Z,1004.03
2022-08-17T09:54:14.694Z,1004.05
2022-08-17T10:03:58.242Z,1004.01
2022-08-17T10:13:59.603Z,1003.98
2022-08-17T10:23:58.258Z,1003.88
2022-08-17T10:33:58.324Z,1003.75
2022-08-17T10:44:39.055Z,1003.75
2022-08-17T10:53:58.424Z,1003.61
2022-08-17T11:03:58.403Z,1003.58
2022-08-17T11:13:58.280Z,1003.50
2022-08-17T11:23:58.641Z,1003.55
2022-08-17T11:33:58.417Z,1003.35
2022-08-17T11:43:58.441Z,1003.26
2022-08-17T11:54:21.682Z,1003.30
2022-08-17T12:03:58.329Z,1003.29
2022-08-17T12:13:58.393Z,1003.09
2022-08-17T12:23:58.360Z,1003.15
2022-08-17T12:33:58.513Z,1002.94
2022-08-17T12:43:58.449Z,1003.06
2022-08-17T12:53:58.554Z,1002.93
2022-08-17T13:03:58.517Z,1002.85
2022-08-17T13:13:58.576Z,1002.78
2022-08-17T13:23:58.752Z,1002.66
2022-08-17T13:33:58.803Z,1002.66
2022-08-17T13:43:58.791Z,1002.61
2022-08-17T13:53:58.715Z,1002.50
2022-08-17T14:03:58.873Z,1002.45
2022-08-17T14:13:58.783Z,1002.31
2022-08-17T14:23:58.655Z,1002.38
2022-08-17T14:33:58.771Z,1002.28
2022-08-17T14:43:58.835Z,1002.24
2022-08-17T14:53:58.932Z,1002.33
2022-08-17T15:03:58.679Z,1002.38
2022-08-17T15:13:58.818Z,1002.31
2022-08-17T15:23:59.056Z,1002.42
2022-08-17T15:33:58.807Z,1002.46
2022-08-17T15:43:58.933Z,1002.68
2022-08-17T15:53:59.056Z,1002.83
2022-08-17T16:04:04.035Z,1002.91
2022-08-17T16:13:58.872Z,1002.70
2022-08-17T16:23:58.868Z,1002.64
2022-08-17T16:34:15.652Z,1002.57
2022-08-17T16:43:58.987Z,1002.63
2022-08-17T16:53:59.289Z,1002.61
2022-08-17T17:03:58.883Z,1002.62
2022-08-17T17:13:58.826Z,1002.60
2022-08-17T17:23:59.035Z,1002.39
2022-08-17T17:33:58.998Z,1002.30
2022-08-17T17:43:59.104Z,1002.40
2022-08-17T17:53:58.889Z,1002.58
2022-08-17T18:03:59.028Z,1002.84
2022-08-17T18:13:59.010Z,1002.88
2022-08-17T18:23:59.200Z,1003.02
2022-08-17T18:33:59.085Z,1003.03
2022-08-17T18:43:59.112Z,1002.96
2022-08-17T18:53:59.536Z,1002.95
2022-08-17T19:03:59.335Z,1003.06
2022-08-17T19:13:59.452Z,1002.95
